sensor_id;sensor_type;location;lat;lon;timestamp;temperature;humidity
29663;DHT22;16578;53.266;7.920;2022-11-24T00:01:59;10.70;78.40
29663;DHT22;16578;53.266;7.920;2022-11-24T00:04:24;10.70;78.40
29663;DHT22;16578;53.266;7.920;2022-11-24T00:06:50;10.60;78.30
29663;DHT22;16578;53.266;7.920;2022-11-24T00:09:17;10.60;78.40
29663;DHT22;16578;53.266;7.920;2022-11-24T00:11:43;10.60;78.50
29663;DHT22;16578;53.266;7.920;2022-11-24T00:14:09;10.50;78.50
29663;DHT22;16578;53.266;7.920;2022-11-24T00:16:36;10.50;78.60
29663;DHT22;16578;53.266;7.920;2022-11-24T00:19:03;10.50;78.60
29663;DHT22;16578;53.266;7.920;2022-11-24T00:21:30;10.40;78.60
29663;DHT22;16578;53.266;7.920;2022-11-24T00:23:57;10.40;79.00
29663;DHT22;16578;53.266;7.920;2022-11-24T00:26:30;10.40;78.70
29663;DHT22;16578;53.266;7.920;2022-11-24T00:28:59;10.40;78.80
29663;DHT22;16578;53.266;7.920;2022-11-24T00:31:30;10.40;78.80
29663;DHT22;16578;53.266;7.920;2022-11-24T00:33:59;10.30;78.80
29663;DHT22;16578;53.266;7.920;2022-11-24T00:36:28;10.30;78.80
29663;DHT22;16578;53.266;7.920;2022-11-24T00:38:59;10.30;78.90
29663;DHT22;16578;53.266;7.920;2022-11-24T00:41:25;10.20;78.90
29663;DHT22;16578;53.266;7.920;2022-11-24T00:43:51;10.20;79.00
29663;DHT22;16578;53.266;7.920;2022-11-24T00:46:17;10.20;79.00
29663;DHT22;16578;53.266;7.920;2022-11-24T00:48:44;10.20;79.10
29663;DHT22;16578;53.266;7.920;2022-11-24T00:51:11;10.20;79.30
29663;DHT22;16578;53.266;7.920;2022-11-24T00:53:37;10.20;79.50
29663;DHT22;16578;53.266;7.920;2022-11-24T00:56:03;10.20;79.60
29663;DHT22;16578;53.266;7.920;2022-11-24T00:58:30;10.20;79.80
29663;DHT22;16578;53.266;7.920;2022-11-24T01:01:01;10.20;80.00
29663;DHT22;16578;53.266;7.920;2022-11-24T01:03:27;10.30;80.10
29663;DHT22;16578;53.266;7.920;2022-11-24T01:05:53;10.30;80.20
29663;DHT22;16578;53.266;7.920;2022-11-24T01:08:18;10.30;80.20
29663;DHT22;16578;53.266;7.920;2022-11-24T01:10:44;10.40;80.30
29663;DHT22;16578;53.266;7.920;2022-11-24T01:13:09;10.40;80.30
29663;DHT22;16578;53.266;7.920;2022-11-24T01:15:36;10.40;80.40
29663;DHT22;16578;53.266;7.920;2022-11-24T01:18:02;10.50;80.40
29663;DHT22;16578;53.266;7.920;2022-11-24T01:20:29;10.50;80.30
29663;DHT22;16578;53.266;7.920;2022-11-24T01:22:55;10.50;80.20
29663;DHT22;16578;53.266;7.920;2022-11-24T01:25:20;10.60;80.20
29663;DHT22;16578;53.266;7.920;2022-11-24T01:27:46;10.60;80.10
29663;DHT22;16578;53.266;7.920;2022-11-24T01:30:11;10.60;80.00
29663;DHT22;16578;53.266;7.920;2022-11-24T01:32:37;10.60;79.80
29663;DHT22;16578;53.266;7.920;2022-11-24T01:35:03;10.60;79.70
29663;DHT22;16578;53.266;7.920;2022-11-24T01:37:29;10.60;79.60
29663;DHT22;16578;53.266;7.920;2022-11-24T01:39:55;10.60;79.70
29663;DHT22;16578;53.266;7.920;2022-11-24T01:42:20;10.60;79.70
29663;DHT22;16578;53.266;7.920;2022-11-24T01:44:47;10.60;79.70
29663;DHT22;16578;53.266;7.920;2022-11-24T01:47:32;10.60;79.80
29663;DHT22;16578;53.266;7.920;2022-11-24T01:50:00;10.60;79.90
29663;DHT22;16578;53.266;7.920;2022-11-24T01:55:05;10.60;79.90
29663;DHT22;16578;53.266;7.920;2022-11-24T01:57:35;10.60;79.90
29663;DHT22;16578;53.266;7.920;2022-11-24T02:00:08;10.60;79.90
29663;DHT22;16578;53.266;7.920;2022-11-24T02:02:34;10.60;79.80
29663;DHT22;16578;53.266;7.920;2022-11-24T02:05:05;10.60;79.90
29663;DHT22;16578;53.266;7.920;2022-11-24T02:07:32;10.70;79.90
29663;DHT22;16578;53.266;7.920;2022-11-24T02:10:01;10.60;79.90
29663;DHT22;16578;53.266;7.920;2022-11-24T02:12:28;10.60;80.00
29663;DHT22;16578;53.266;7.920;2022-11-24T02:14:54;10.60;80.10
29663;DHT22;16578;53.266;7.920;2022-11-24T02:17:21;10.60;80.10
29663;DHT22;16578;53.266;7.920;2022-11-24T02:19:58;10.70;80.20
29663;DHT22;16578;53.266;7.920;2022-11-24T02:25:23;10.70;80.20
29663;DHT22;16578;53.266;7.920;2022-11-24T02:27:52;10.80;80.10
29663;DHT22;16578;53.266;7.920;2022-11-24T02:30:18;10.80;80.10
29663;DHT22;16578;53.266;7.920;2022-11-24T02:32:44;10.80;79.90
29663;DHT22;16578;53.266;7.920;2022-11-24T02:35:10;10.80;79.80
29663;DHT22;16578;53.266;7.920;2022-11-24T02:37:36;10.70;79.60
29663;DHT22;16578;53.266;7.920;2022-11-24T02:40:02;10.70;79.60
29663;DHT22;16578;53.266;7.920;2022-11-24T02:42:30;10.70;79.60
29663;DHT22;16578;53.266;7.920;2022-11-24T02:44:59;10.70;79.50
29663;DHT22;16578;53.266;7.920;2022-11-24T02:47:25;10.70;80.30
29663;DHT22;16578;53.266;7.920;2022-11-24T02:49:50;10.70;79.40
29663;DHT22;16578;53.266;7.920;2022-11-24T02:52:16;10.60;79.30
29663;DHT22;16578;53.266;7.920;2022-11-24T02:54:42;10.60;79.30
29663;DHT22;16578;53.266;7.920;2022-11-24T02:57:08;10.50;79.30
29663;DHT22;16578;53.266;7.920;2022-11-24T02:59:34;10.60;79.30
29663;DHT22;16578;53.266;7.920;2022-11-24T03:01:59;10.50;79.30
29663;DHT22;16578;53.266;7.920;2022-11-24T03:04:25;10.50;79.40
29663;DHT22;16578;53.266;7.920;2022-11-24T03:06:50;10.50;79.40
29663;DHT22;16578;53.266;7.920;2022-11-24T03:09:16;10.40;79.30
29663;DHT22;16578;53.266;7.920;2022-11-24T03:11:42;10.40;79.30
29663;DHT22;16578;53.266;7.920;2022-11-24T03:14:07;10.40;79.40
29663;DHT22;16578;53.266;7.920;2022-11-24T03:16:33;10.30;79.30
29663;DHT22;16578;53.266;7.920;2022-11-24T03:18:59;10.30;79.40
29663;DHT22;16578;53.266;7.920;2022-11-24T03:21:24;10.20;79.30
29663;DHT22;16578;53.266;7.920;2022-11-24T03:23:51;10.20;79.40
29663;DHT22;16578;53.266;7.920;2022-11-24T03:26:19;10.20;79.40
29663;DHT22;16578;53.266;7.920;2022-11-24T03:28:45;10.20;79.30
29663;DHT22;16578;53.266;7.920;2022-11-24T03:31:11;10.10;79.30
29663;DHT22;16578;53.266;7.920;2022-11-24T03:33:37;10.10;79.30
29663;DHT22;16578;53.266;7.920;2022-11-24T03:36:04;10.10;79.40
29663;DHT22;16578;53.266;7.920;2022-11-24T03:38:30;10.10;79.40
29663;DHT22;16578;53.266;7.920;2022-11-24T03:40:55;10.00;79.40
29663;DHT22;16578;53.266;7.920;2022-11-24T03:43:21;10.00;79.40
29663;DHT22;16578;53.266;7.920;2022-11-24T03:45:48;9.90;79.40
29663;DHT22;16578;53.266;7.920;2022-11-24T03:48:15;9.90;79.50
29663;DHT22;16578;53.266;7.920;2022-11-24T03:50:41;9.90;79.50
29663;DHT22;16578;53.266;7.920;2022-11-24T03:53:07;9.80;79.60
29663;DHT22;16578;53.266;7.920;2022-11-24T03:55:32;9.80;79.70
29663;DHT22;16578;53.266;7.920;2022-11-24T03:57:58;9.80;79.80
29663;DHT22;16578;53.266;7.920;2022-11-24T04:00:25;9.70;79.80
29663;DHT22;16578;53.266;7.920;2022-11-24T04:02:51;9.80;79.90
29663;DHT22;16578;53.266;7.920;2022-11-24T04:05:16;9.70;80.10
29663;DHT22;16578;53.266;7.920;2022-11-24T04:07:42;9.70;80.10
29663;DHT22;16578;53.266;7.920;2022-11-24T04:10:07;9.70;80.20
29663;DHT22;16578;53.266;7.920;2022-11-24T04:12:33;9.70;80.30
29663;DHT22;16578;53.266;7.920;2022-11-24T04:15:13;9.70;80.50
29663;DHT22;16578;53.266;7.920;2022-11-24T04:17:39;9.70;80.60
29663;DHT22;16578;53.266;7.920;2022-11-24T04:20:05;9.70;80.70
29663;DHT22;16578;53.266;7.920;2022-11-24T04:22:31;9.70;80.80
29663;DHT22;16578;53.266;7.920;2022-11-24T04:24:56;9.80;81.00
29663;DHT22;16578;53.266;7.920;2022-11-24T04:27:22;9.80;81.00
29663;DHT22;16578;53.266;7.920;2022-11-24T04:29:48;9.90;81.10
29663;DHT22;16578;53.266;7.920;2022-11-24T04:32:15;9.90;81.10
29663;DHT22;16578;53.266;7.920;2022-11-24T04:34:40;9.90;81.10
29663;DHT22;16578;53.266;7.920;2022-11-24T04:37:06;10.00;81.10
29663;DHT22;16578;53.266;7.920;2022-11-24T04:39:32;10.00;81.10
29663;DHT22;16578;53.266;7.920;2022-11-24T04:41:57;10.00;81.00
29663;DHT22;16578;53.266;7.920;2022-11-24T04:44:23;10.10;80.90
29663;DHT22;16578;53.266;7.920;2022-11-24T04:46:48;10.10;80.80
29663;DHT22;16578;53.266;7.920;2022-11-24T04:49:14;10.10;80.80
29663;DHT22;16578;53.266;7.920;2022-11-24T04:51:41;10.10;80.70
29663;DHT22;16578;53.266;7.920;2022-11-24T04:54:09;10.10;80.50
29663;DHT22;16578;53.266;7.920;2022-11-24T04:56:35;10.10;80.50
29663;DHT22;16578;53.266;7.920;2022-11-24T04:59:00;10.10;80.50
29663;DHT22;16578;53.266;7.920;2022-11-24T05:01:26;10.10;80.50
29663;DHT22;16578;53.266;7.920;2022-11-24T05:03:53;10.10;80.60
29663;DHT22;16578;53.266;7.920;2022-11-24T05:06:19;10.10;80.70
29663;DHT22;16578;53.266;7.920;2022-11-24T05:08:49;10.10;80.80
29663;DHT22;16578;53.266;7.920;2022-11-24T05:11:15;10.10;80.90
29663;DHT22;16578;53.266;7.920;2022-11-24T05:13:41;10.10;81.00
29663;DHT22;16578;53.266;7.920;2022-11-24T05:16:07;10.10;80.90
29663;DHT22;16578;53.266;7.920;2022-11-24T05:18:32;10.20;81.10
29663;DHT22;16578;53.266;7.920;2022-11-24T05:20:59;10.20;81.10
29663;DHT22;16578;53.266;7.920;2022-11-24T05:23:24;10.20;81.00
29663;DHT22;16578;53.266;7.920;2022-11-24T05:25:50;10.20;81.10
29663;DHT22;16578;53.266;7.920;2022-11-24T05:28:17;10.30;81.20
29663;DHT22;16578;53.266;7.920;2022-11-24T05:30:43;10.30;81.10
29663;DHT22;16578;53.266;7.920;2022-11-24T05:33:15;10.30;81.10
29663;DHT22;16578;53.266;7.920;2022-11-24T05:35:46;10.30;81.10
29663;DHT22;16578;53.266;7.920;2022-11-24T05:38:13;10.30;81.00
29663;DHT22;16578;53.266;7.920;2022-11-24T05:40:40;10.40;81.10
29663;DHT22;16578;53.266;7.920;2022-11-24T05:43:18;10.40;81.00
29663;DHT22;16578;53.266;7.920;2022-11-24T05:45:43;10.40;80.80
29663;DHT22;16578;53.266;7.920;2022-11-24T05:48:12;10.40;80.70
29663;DHT22;16578;53.266;7.920;2022-11-24T05:50:38;10.40;80.50
29663;DHT22;16578;53.266;7.920;2022-11-24T05:53:10;10.40;80.50
29663;DHT22;16578;53.266;7.920;2022-11-24T05:55:37;10.40;80.40
29663;DHT22;16578;53.266;7.920;2022-11-24T05:58:05;10.40;80.30
29663;DHT22;16578;53.266;7.920;2022-11-24T06:00:32;10.30;80.20
29663;DHT22;16578;53.266;7.920;2022-11-24T06:02:59;10.30;80.30
29663;DHT22;16578;53.266;7.920;2022-11-24T06:05:25;10.30;80.20
29663;DHT22;16578;53.266;7.920;2022-11-24T06:07:52;10.30;80.20
29663;DHT22;16578;53.266;7.920;2022-11-24T06:10:18;10.20;80.20
29663;DHT22;16578;53.266;7.920;2022-11-24T06:12:44;10.20;80.20
29663;DHT22;16578;53.266;7.920;2022-11-24T06:15:10;10.20;80.30
29663;DHT22;16578;53.266;7.920;2022-11-24T06:17:37;10.20;80.30
29663;DHT22;16578;53.266;7.920;2022-11-24T06:20:04;10.10;80.30
29663;DHT22;16578;53.266;7.920;2022-11-24T06:22:29;10.10;80.30
29663;DHT22;16578;53.266;7.920;2022-11-24T06:24:55;10.10;80.30
29663;DHT22;16578;53.266;7.920;2022-11-24T06:27:21;10.10;80.30
29663;DHT22;16578;53.266;7.920;2022-11-24T06:29:47;10.10;80.30
29663;DHT22;16578;53.266;7.920;2022-11-24T06:32:12;10.10;80.30
29663;DHT22;16578;53.266;7.920;2022-11-24T06:34:38;10.00;80.30
29663;DHT22;16578;53.266;7.920;2022-11-24T06:37:04;10.00;80.20
29663;DHT22;16578;53.266;7.920;2022-11-24T06:39:30;10.00;80.30
29663;DHT22;16578;53.266;7.920;2022-11-24T06:41:56;10.00;80.30
29663;DHT22;16578;53.266;7.920;2022-11-24T06:44:21;10.00;80.40
29663;DHT22;16578;53.266;7.920;2022-11-24T06:46:47;9.90;80.30
29663;DHT22;16578;53.266;7.920;2022-11-24T06:49:13;9.90;80.30
29663;DHT22;16578;53.266;7.920;2022-11-24T06:51:38;9.90;80.40
29663;DHT22;16578;53.266;7.920;2022-11-24T06:54:08;9.90;80.50
29663;DHT22;16578;53.266;7.920;2022-11-24T06:56:35;9.90;80.40
29663;DHT22;16578;53.266;7.920;2022-11-24T06:59:01;9.90;80.50
29663;DHT22;16578;53.266;7.920;2022-11-24T07:01:28;9.90;80.60
29663;DHT22;16578;53.266;7.920;2022-11-24T07:03:55;9.80;80.50
29663;DHT22;16578;53.266;7.920;2022-11-24T07:06:22;9.90;80.60
29663;DHT22;16578;53.266;7.920;2022-11-24T07:08:48;9.80;80.50
29663;DHT22;16578;53.266;7.920;2022-11-24T07:11:16;9.80;80.50
29663;DHT22;16578;53.266;7.920;2022-11-24T07:13:42;9.80;80.50
29663;DHT22;16578;53.266;7.920;2022-11-24T07:18:36;9.80;80.60
29663;DHT22;16578;53.266;7.920;2022-11-24T07:21:05;9.80;80.90
29663;DHT22;16578;53.266;7.920;2022-11-24T07:23:31;9.80;80.70
29663;DHT22;16578;53.266;7.920;2022-11-24T07:25:56;9.80;80.60
29663;DHT22;16578;53.266;7.920;2022-11-24T07:28:23;9.80;80.70
29663;DHT22;16578;53.266;7.920;2022-11-24T07:30:48;9.80;80.70
29663;DHT22;16578;53.266;7.920;2022-11-24T07:33:14;9.80;80.80
29663;DHT22;16578;53.266;7.920;2022-11-24T07:35:40;9.80;80.80
29663;DHT22;16578;53.266;7.920;2022-11-24T07:38:06;9.80;80.80
29663;DHT22;16578;53.266;7.920;2022-11-24T07:40:31;9.80;80.80
29663;DHT22;16578;53.266;7.920;2022-11-24T07:42:59;9.90;80.80
29663;DHT22;16578;53.266;7.920;2022-11-24T07:45:25;9.80;80.80
29663;DHT22;16578;53.266;7.920;2022-11-24T07:47:51;9.70;81.00
29663;DHT22;16578;53.266;7.920;2022-11-24T07:50:16;9.80;80.80
29663;DHT22;16578;53.266;7.920;2022-11-24T07:52:42;9.80;80.60
29663;DHT22;16578;53.266;7.920;2022-11-24T07:55:08;9.80;80.60
29663;DHT22;16578;53.266;7.920;2022-11-24T07:57:34;9.80;80.60
29663;DHT22;16578;53.266;7.920;2022-11-24T07:59:59;9.80;80.60
29663;DHT22;16578;53.266;7.920;2022-11-24T08:02:25;9.80;80.60
29663;DHT22;16578;53.266;7.920;2022-11-24T08:04:50;9.80;80.70
29663;DHT22;16578;53.266;7.920;2022-11-24T08:07:16;9.80;80.80
29663;DHT22;16578;53.266;7.920;2022-11-24T08:09:41;9.80;80.90
29663;DHT22;16578;53.266;7.920;2022-11-24T08:12:07;9.80;81.00
29663;DHT22;16578;53.266;7.920;2022-11-24T08:14:32;9.80;81.10
29663;DHT22;16578;53.266;7.920;2022-11-24T08:16:58;9.80;81.20
29663;DHT22;16578;53.266;7.920;2022-11-24T08:19:23;9.90;81.30
29663;DHT22;16578;53.266;7.920;2022-11-24T08:21:49;9.90;81.40
29663;DHT22;16578;53.266;7.920;2022-11-24T08:24:15;9.90;81.40
29663;DHT22;16578;53.266;7.920;2022-11-24T08:26:41;9.90;81.40
29663;DHT22;16578;53.266;7.920;2022-11-24T08:29:07;10.00;81.50
29663;DHT22;16578;53.266;7.920;2022-11-24T08:31:33;10.00;81.60
29663;DHT22;16578;53.266;7.920;2022-11-24T08:34:01;10.10;81.70
29663;DHT22;16578;53.266;7.920;2022-11-24T08:36:27;10.10;81.80
29663;DHT22;16578;53.266;7.920;2022-11-24T08:38:58;10.20;81.90
29663;DHT22;16578;53.266;7.920;2022-11-24T08:41:25;10.20;82.00
29663;DHT22;16578;53.266;7.920;2022-11-24T08:43:52;10.20;82.00
29663;DHT22;16578;53.266;7.920;2022-11-24T08:46:18;10.30;82.10
29663;DHT22;16578;53.266;7.920;2022-11-24T08:48:47;10.40;82.10
29663;DHT22;16578;53.266;7.920;2022-11-24T08:51:14;10.40;82.10
29663;DHT22;16578;53.266;7.920;2022-11-24T08:53:41;10.50;82.20
29663;DHT22;16578;53.266;7.920;2022-11-24T08:56:07;10.50;82.20
29663;DHT22;16578;53.266;7.920;2022-11-24T08:58:33;10.60;82.20
29663;DHT22;16578;53.266;7.920;2022-11-24T09:01:07;10.60;82.20
29663;DHT22;16578;53.266;7.920;2022-11-24T09:03:34;10.70;82.20
29663;DHT22;16578;53.266;7.920;2022-11-24T09:06:00;10.70;82.10
29663;DHT22;16578;53.266;7.920;2022-11-24T09:08:25;10.80;82.10
29663;DHT22;16578;53.266;7.920;2022-11-24T09:10:51;10.90;82.20
29663;DHT22;16578;53.266;7.920;2022-11-24T09:13:17;10.90;82.20
29663;DHT22;16578;53.266;7.920;2022-11-24T09:15:43;11.00;82.10
29663;DHT22;16578;53.266;7.920;2022-11-24T09:18:08;11.00;82.10
29663;DHT22;16578;53.266;7.920;2022-11-24T09:20:34;11.10;82.00
29663;DHT22;16578;53.266;7.920;2022-11-24T09:22:59;11.10;81.90
29663;DHT22;16578;53.266;7.920;2022-11-24T09:25:25;11.10;81.80
29663;DHT22;16578;53.266;7.920;2022-11-24T09:27:50;11.20;81.70
29663;DHT22;16578;53.266;7.920;2022-11-24T09:30:16;11.20;81.70
29663;DHT22;16578;53.266;7.920;2022-11-24T09:32:42;11.30;81.60
29663;DHT22;16578;53.266;7.920;2022-11-24T09:35:08;11.30;81.60
29663;DHT22;16578;53.266;7.920;2022-11-24T09:37:34;11.40;81.50
29663;DHT22;16578;53.266;7.920;2022-11-24T09:40:00;11.40;81.40
29663;DHT22;16578;53.266;7.920;2022-11-24T09:42:47;11.40;81.30
29663;DHT22;16578;53.266;7.920;2022-11-24T09:45:39;11.50;81.20
29663;DHT22;16578;53.266;7.920;2022-11-24T09:48:25;11.50;81.20
29663;DHT22;16578;53.266;7.920;2022-11-24T09:50:51;11.50;81.10
29663;DHT22;16578;53.266;7.920;2022-11-24T09:53:42;11.50;81.10
29663;DHT22;16578;53.266;7.920;2022-11-24T09:56:25;11.60;81.00
29663;DHT22;16578;53.266;7.920;2022-11-24T09:59:12;11.60;81.00
29663;DHT22;16578;53.266;7.920;2022-11-24T10:01:43;11.60;80.90
29663;DHT22;16578;53.266;7.920;2022-11-24T10:04:38;11.60;81.00
29663;DHT22;16578;53.266;7.920;2022-11-24T10:14:59;11.80;80.80
29663;DHT22;16578;53.266;7.920;2022-11-24T10:25:58;11.90;80.50
29663;DHT22;16578;53.266;7.920;2022-11-24T10:28:49;11.90;80.50
29663;DHT22;16578;53.266;7.920;2022-11-24T10:31:23;11.90;80.30
29663;DHT22;16578;53.266;7.920;2022-11-24T10:33:49;12.00;80.50
29663;DHT22;16578;53.266;7.920;2022-11-24T10:36:24;12.00;80.40
29663;DHT22;16578;53.266;7.920;2022-11-24T10:39:04;12.00;80.20
29663;DHT22;16578;53.266;7.920;2022-11-24T10:41:42;12.10;80.10
29663;DHT22;16578;53.266;7.920;2022-11-24T10:44:14;12.10;80.10
29663;DHT22;16578;53.266;7.920;2022-11-24T10:46:40;12.10;80.10
29663;DHT22;16578;53.266;7.920;2022-11-24T10:49:06;12.10;80.10
29663;DHT22;16578;53.266;7.920;2022-11-24T10:51:43;12.10;79.90
29663;DHT22;16578;53.266;7.920;2022-11-24T10:54:19;12.20;79.80
29663;DHT22;16578;53.266;7.920;2022-11-24T10:56:46;12.20;79.80
29663;DHT22;16578;53.266;7.920;2022-11-24T11:01:49;12.30;80.00
29663;DHT22;16578;53.266;7.920;2022-11-24T11:04:20;12.30;80.00
29663;DHT22;16578;53.266;7.920;2022-11-24T11:06:46;12.40;80.00
29663;DHT22;16578;53.266;7.920;2022-11-24T11:09:17;12.40;79.90
29663;DHT22;16578;53.266;7.920;2022-11-24T11:11:44;12.40;79.60
29663;DHT22;16578;53.266;7.920;2022-11-24T11:14:12;12.40;79.40
29663;DHT22;16578;53.266;7.920;2022-11-24T11:16:53;12.40;79.50
29663;DHT22;16578;53.266;7.920;2022-11-24T11:19:42;12.50;79.50
29663;DHT22;16578;53.266;7.920;2022-11-24T11:24:42;12.40;79.30
29663;DHT22;16578;53.266;7.920;2022-11-24T11:27:22;12.50;79.10
29663;DHT22;16578;53.266;7.920;2022-11-24T11:29:48;12.50;78.70
29663;DHT22;16578;53.266;7.920;2022-11-24T11:32:25;12.50;78.70
29663;DHT22;16578;53.266;7.920;2022-11-24T11:34:55;12.50;78.50
29663;DHT22;16578;53.266;7.920;2022-11-24T11:37:26;12.50;78.60
29663;DHT22;16578;53.266;7.920;2022-11-24T11:39:54;12.50;78.60
29663;DHT22;16578;53.266;7.920;2022-11-24T11:45:20;12.50;78.50
29663;DHT22;16578;53.266;7.920;2022-11-24T11:50:42;12.50;78.60
29663;DHT22;16578;53.266;7.920;2022-11-24T11:53:26;12.50;78.60
29663;DHT22;16578;53.266;7.920;2022-11-24T11:59:09;12.50;78.60
29663;DHT22;16578;53.266;7.920;2022-11-24T12:05:00;12.60;78.70
29663;DHT22;16578;53.266;7.920;2022-11-24T12:10:25;12.60;78.70
29663;DHT22;16578;53.266;7.920;2022-11-24T12:15:39;12.60;78.70
29663;DHT22;16578;53.266;7.920;2022-11-24T12:18:41;12.70;78.50
29663;DHT22;16578;53.266;7.920;2022-11-24T12:21:18;12.70;78.50
29663;DHT22;16578;53.266;7.920;2022-11-24T12:24:04;12.80;78.60
29663;DHT22;16578;53.266;7.920;2022-11-24T12:26:56;12.80;78.50
29663;DHT22;16578;53.266;7.920;2022-11-24T12:43:10;13.00;77.90
29663;DHT22;16578;53.266;7.920;2022-11-24T12:46:00;13.00;77.90
29663;DHT22;16578;53.266;7.920;2022-11-24T12:51:17;13.00;77.80
29663;DHT22;16578;53.266;7.920;2022-11-24T12:53:45;13.00;77.70
29663;DHT22;16578;53.266;7.920;2022-11-24T12:56:13;13.00;77.50
29663;DHT22;16578;53.266;7.920;2022-11-24T12:58:51;13.00;77.40
29663;DHT22;16578;53.266;7.920;2022-11-24T13:01:43;13.10;77.30
29663;DHT22;16578;53.266;7.920;2022-11-24T13:04:31;13.10;77.20
29663;DHT22;16578;53.266;7.920;2022-11-24T13:07:09;13.10;77.40
29663;DHT22;16578;53.266;7.920;2022-11-24T13:09:36;13.10;77.40
29663;DHT22;16578;53.266;7.920;2022-11-24T13:12:12;13.00;77.30
29663;DHT22;16578;53.266;7.920;2022-11-24T13:14:41;13.10;77.20
29663;DHT22;16578;53.266;7.920;2022-11-24T13:17:30;13.00;77.20
29663;DHT22;16578;53.266;7.920;2022-11-24T13:20:34;13.10;77.00
29663;DHT22;16578;53.266;7.920;2022-11-24T13:23:04;13.00;77.00
29663;DHT22;16578;53.266;7.920;2022-11-24T13:25:34;13.00;77.20
29663;DHT22;16578;53.266;7.920;2022-11-24T13:28:01;13.00;77.10
29663;DHT22;16578;53.266;7.920;2022-11-24T13:33:03;13.00;77.10
29663;DHT22;16578;53.266;7.920;2022-11-24T13:38:40;13.00;77.00
29663;DHT22;16578;53.266;7.920;2022-11-24T13:41:10;13.00;77.00
29663;DHT22;16578;53.266;7.920;2022-11-24T13:46:56;13.00;76.90
29663;DHT22;16578;53.266;7.920;2022-11-24T13:49:23;13.00;77.00
29663;DHT22;16578;53.266;7.920;2022-11-24T13:51:54;13.00;77.20
29663;DHT22;16578;53.266;7.920;2022-11-24T13:54:22;13.00;77.10
29663;DHT22;16578;53.266;7.920;2022-11-24T13:56:49;13.00;77.10
29663;DHT22;16578;53.266;7.920;2022-11-24T13:59:28;12.90;77.30
29663;DHT22;16578;53.266;7.920;2022-11-24T14:01:57;12.90;77.20
29663;DHT22;16578;53.266;7.920;2022-11-24T14:04:24;12.90;77.20
29663;DHT22;16578;53.266;7.920;2022-11-24T14:09:24;12.90;77.20
29663;DHT22;16578;53.266;7.920;2022-11-24T14:14:22;12.90;77.10
29663;DHT22;16578;53.266;7.920;2022-11-24T14:16:48;12.90;77.10
29663;DHT22;16578;53.266;7.920;2022-11-24T14:19:29;12.90;77.10
29663;DHT22;16578;53.266;7.920;2022-11-24T14:21:55;12.80;77.10
29663;DHT22;16578;53.266;7.920;2022-11-24T14:24:30;12.90;77.10
29663;DHT22;16578;53.266;7.920;2022-11-24T14:26:56;12.80;76.90
29663;DHT22;16578;53.266;7.920;2022-11-24T14:29:23;12.80;77.00
29663;DHT22;16578;53.266;7.920;2022-11-24T14:31:58;12.80;77.10
29663;DHT22;16578;53.266;7.920;2022-11-24T14:34:26;12.80;77.00
29663;DHT22;16578;53.266;7.920;2022-11-24T14:36:54;12.80;77.10
29663;DHT22;16578;53.266;7.920;2022-11-24T14:39:21;12.80;77.00
29663;DHT22;16578;53.266;7.920;2022-11-24T14:41:54;12.70;77.20
29663;DHT22;16578;53.266;7.920;2022-11-24T14:44:24;12.70;76.90
29663;DHT22;16578;53.266;7.920;2022-11-24T14:47:20;12.70;76.90
29663;DHT22;16578;53.266;7.920;2022-11-24T14:49:47;12.70;76.90
29663;DHT22;16578;53.266;7.920;2022-11-24T14:52:15;12.70;77.00
29663;DHT22;16578;53.266;7.920;2022-11-24T14:54:54;12.60;76.90
29663;DHT22;16578;53.266;7.920;2022-11-24T14:57:28;12.50;77.20
29663;DHT22;16578;53.266;7.920;2022-11-24T15:05:13;12.40;77.00
29663;DHT22;16578;53.266;7.920;2022-11-24T15:07:47;12.40;77.10
29663;DHT22;16578;53.266;7.920;2022-11-24T15:10:36;12.40;77.10
29663;DHT22;16578;53.266;7.920;2022-11-24T15:13:16;12.30;77.10
29663;DHT22;16578;53.266;7.920;2022-11-24T15:15:48;12.30;77.20
29663;DHT22;16578;53.266;7.920;2022-11-24T15:18:25;12.30;77.30
29663;DHT22;16578;53.266;7.920;2022-11-24T15:20:52;12.30;77.20
29663;DHT22;16578;53.266;7.920;2022-11-24T15:23:29;12.20;77.30
29663;DHT22;16578;53.266;7.920;2022-11-24T15:25:56;12.20;77.30
29663;DHT22;16578;53.266;7.920;2022-11-24T15:28:22;12.10;77.30
29663;DHT22;16578;53.266;7.920;2022-11-24T15:30:58;12.10;77.30
29663;DHT22;16578;53.266;7.920;2022-11-24T15:33:24;12.00;77.40
29663;DHT22;16578;53.266;7.920;2022-11-24T15:35:50;12.00;77.50
29663;DHT22;16578;53.266;7.920;2022-11-24T15:38:16;12.00;77.60
29663;DHT22;16578;53.266;7.920;2022-11-24T15:40:44;12.00;77.80
29663;DHT22;16578;53.266;7.920;2022-11-24T15:43:26;12.00;77.90
29663;DHT22;16578;53.266;7.920;2022-11-24T15:45:53;11.90;78.00
29663;DHT22;16578;53.266;7.920;2022-11-24T15:48:18;11.90;78.20
29663;DHT22;16578;53.266;7.920;2022-11-24T15:50:45;11.90;78.30
29663;DHT22;16578;53.266;7.920;2022-11-24T15:53:24;11.90;78.50
29663;DHT22;16578;53.266;7.920;2022-11-24T15:55:52;12.00;78.70
29663;DHT22;16578;53.266;7.920;2022-11-24T15:58:20;12.00;78.80
29663;DHT22;16578;53.266;7.920;2022-11-24T16:00:46;12.00;78.90
29663;DHT22;16578;53.266;7.920;2022-11-24T16:03:11;12.00;78.80
29663;DHT22;16578;53.266;7.920;2022-11-24T16:05:37;12.00;78.80
29663;DHT22;16578;53.266;7.920;2022-11-24T16:08:05;12.00;78.70
29663;DHT22;16578;53.266;7.920;2022-11-24T16:10:32;12.00;78.40
29663;DHT22;16578;53.266;7.920;2022-11-24T16:12:59;12.10;78.40
29663;DHT22;16578;53.266;7.920;2022-11-24T16:15:24;12.00;78.30
29663;DHT22;16578;53.266;7.920;2022-11-24T16:17:50;12.10;78.40
29663;DHT22;16578;53.266;7.920;2022-11-24T16:20:16;12.00;78.40
29663;DHT22;16578;53.266;7.920;2022-11-24T16:22:42;12.00;79.20
29663;DHT22;16578;53.266;7.920;2022-11-24T16:25:08;12.00;78.30
29663;DHT22;16578;53.266;7.920;2022-11-24T16:27:34;12.00;78.30
29663;DHT22;16578;53.266;7.920;2022-11-24T16:29:59;12.00;78.20
29663;DHT22;16578;53.266;7.920;2022-11-24T16:32:26;11.90;78.10
29663;DHT22;16578;53.266;7.920;2022-11-24T16:34:51;11.90;78.10
29663;DHT22;16578;53.266;7.920;2022-11-24T16:37:17;11.90;78.10
29663;DHT22;16578;53.266;7.920;2022-11-24T16:39:42;11.90;78.10
29663;DHT22;16578;53.266;7.920;2022-11-24T16:42:08;11.80;78.00
29663;DHT22;16578;53.266;7.920;2022-11-24T16:44:33;11.80;78.10
29663;DHT22;16578;53.266;7.920;2022-11-24T16:46:59;11.70;78.10
29663;DHT22;16578;53.266;7.920;2022-11-24T16:49:25;11.70;78.20
29663;DHT22;16578;53.266;7.920;2022-11-24T16:51:50;11.70;78.30
29663;DHT22;16578;53.266;7.920;2022-11-24T16:54:16;11.70;78.30
29663;DHT22;16578;53.266;7.920;2022-11-24T16:56:41;11.60;78.30
29663;DHT22;16578;53.266;7.920;2022-11-24T16:59:07;11.60;78.30
29663;DHT22;16578;53.266;7.920;2022-11-24T17:01:32;11.60;78.30
29663;DHT22;16578;53.266;7.920;2022-11-24T17:03:59;11.50;78.30
29663;DHT22;16578;53.266;7.920;2022-11-24T17:06:25;11.50;78.30